sensor_id;sensor_type;location;lat;lon;timestamp;P1;durP1;ratioP1;P2;durP2;ratioP2
37305;SDS011;23193;42.656;21.170;2024-03-06T00:00:14;119.82;;;59.10;;
37305;SDS011;23193;42.656;21.170;2024-03-06T00:02:41;96.22;;;49.05;;
37305;SDS011;23193;42.656;21.170;2024-03-06T00:05:09;97.10;;;52.00;;
37305;SDS011;23193;42.656;21.170;2024-03-06T00:07:36;102.43;;;54.28;;
37305;SDS011;23193;42.656;21.170;2024-03-06T00:10:04;92.50;;;51.47;;
37305;SDS011;23193;42.656;21.170;2024-03-06T00:12:35;101.80;;;52.55;;
37305;SDS011;23193;42.656;21.170;2024-03-06T00:15:07;91.95;;;49.17;;
37305;SDS011;23193;42.656;21.170;2024-03-06T00:17:35;92.00;;;47.30;;
37305;SDS011;23193;42.656;21.170;2024-03-06T00:20:03;86.72;;;48.63;;
37305;SDS011;23193;42.656;21.170;2024-03-06T00:22:32;86.15;;;47.90;;
37305;SDS011;23193;42.656;21.170;2024-03-06T00:24:59;92.28;;;46.83;;
37305;SDS011;23193;42.656;21.170;2024-03-06T00:27:26;86.32;;;47.35;;
37305;SDS011;23193;42.656;21.170;2024-03-06T00:29:53;96.88;;;45.83;;
37305;SDS011;23193;42.656;21.170;2024-03-06T00:32:20;77.00;;;42.97;;
37305;SDS011;23193;42.656;21.170;2024-03-06T00:34:47;86.60;;;44.95;;
37305;SDS011;23193;42.656;21.170;2024-03-06T00:37:14;88.18;;;47.97;;
37305;SDS011;23193;42.656;21.170;2024-03-06T00:39:42;90.07;;;50.67;;
37305;SDS011;23193;42.656;21.170;2024-03-06T00:42:09;94.90;;;49.15;;
37305;SDS011;23193;42.656;21.170;2024-03-06T00:44:38;102.90;;;53.10;;
37305;SDS011;23193;42.656;21.170;2024-03-06T00:47:05;101.07;;;54.08;;
37305;SDS011;23193;42.656;21.170;2024-03-06T00:49:32;115.75;;;58.15;;
37305;SDS011;23193;42.656;21.170;2024-03-06T00:52:00;99.95;;;50.95;;
37305;SDS011;23193;42.656;21.170;2024-03-06T00:54:27;92.80;;;48.75;;
37305;SDS011;23193;42.656;21.170;2024-03-06T00:56:53;97.47;;;53.15;;
37305;SDS011;23193;42.656;21.170;2024-03-06T00:59:21;103.38;;;54.00;;
37305;SDS011;23193;42.656;21.170;2024-03-06T01:01:52;89.93;;;50.33;;
37305;SDS011;23193;42.656;21.170;2024-03-06T01:04:23;96.45;;;48.45;;
37305;SDS011;23193;42.656;21.170;2024-03-06T01:06:50;98.88;;;53.13;;
37305;SDS011;23193;42.656;21.170;2024-03-06T01:09:18;101.30;;;53.35;;
37305;SDS011;23193;42.656;21.170;2024-03-06T01:11:45;93.78;;;49.53;;
37305;SDS011;23193;42.656;21.170;2024-03-06T01:14:14;103.82;;;52.67;;
37305;SDS011;23193;42.656;21.170;2024-03-06T01:16:43;109.60;;;54.28;;
37305;SDS011;23193;42.656;21.170;2024-03-06T01:19:11;97.88;;;52.22;;
37305;SDS011;23193;42.656;21.170;2024-03-06T01:21:38;104.50;;;53.15;;
37305;SDS011;23193;42.656;21.170;2024-03-06T01:24:05;98.22;;;50.88;;
37305;SDS011;23193;42.656;21.170;2024-03-06T01:26:33;99.97;;;52.97;;
37305;SDS011;23193;42.656;21.170;2024-03-06T01:29:01;96.93;;;53.13;;
37305;SDS011;23193;42.656;21.170;2024-03-06T01:31:28;101.38;;;52.78;;
37305;SDS011;23193;42.656;21.170;2024-03-06T01:33:56;111.15;;;53.97;;
37305;SDS011;23193;42.656;21.170;2024-03-06T01:36:23;93.88;;;51.90;;
37305;SDS011;23193;42.656;21.170;2024-03-06T01:38:51;96.78;;;51.30;;
37305;SDS011;23193;42.656;21.170;2024-03-06T01:41:18;88.43;;;49.92;;
37305;SDS011;23193;42.656;21.170;2024-03-06T01:43:46;87.70;;;46.05;;
37305;SDS011;23193;42.656;21.170;2024-03-06T01:46:14;80.82;;;39.67;;
37305;SDS011;23193;42.656;21.170;2024-03-06T01:48:42;74.78;;;40.17;;
37305;SDS011;23193;42.656;21.170;2024-03-06T01:51:09;86.35;;;43.08;;
37305;SDS011;23193;42.656;21.170;2024-03-06T01:53:37;90.05;;;44.85;;
37305;SDS011;23193;42.656;21.170;2024-03-06T01:56:05;79.28;;;44.70;;
37305;SDS011;23193;42.656;21.170;2024-03-06T01:58:32;81.32;;;43.53;;
37305;SDS011;23193;42.656;21.170;2024-03-06T02:01:01;78.85;;;41.63;;
37305;SDS011;23193;42.656;21.170;2024-03-06T02:03:28;75.63;;;39.50;;
37305;SDS011;23193;42.656;21.170;2024-03-06T02:05:56;73.38;;;40.25;;
37305;SDS011;23193;42.656;21.170;2024-03-06T02:08:24;80.22;;;41.17;;
37305;SDS011;23193;42.656;21.170;2024-03-06T02:10:51;75.47;;;40.20;;
37305;SDS011;23193;42.656;21.170;2024-03-06T02:13:19;70.05;;;37.05;;
37305;SDS011;23193;42.656;21.170;2024-03-06T02:15:46;67.80;;;34.72;;
37305;SDS011;23193;42.656;21.170;2024-03-06T02:18:13;62.83;;;36.03;;
37305;SDS011;23193;42.656;21.170;2024-03-06T02:20:40;65.97;;;36.08;;
37305;SDS011;23193;42.656;21.170;2024-03-06T02:23:08;60.45;;;33.50;;
37305;SDS011;23193;42.656;21.170;2024-03-06T02:25:35;62.13;;;33.88;;
37305;SDS011;23193;42.656;21.170;2024-03-06T02:28:03;66.78;;;35.25;;
37305;SDS011;23193;42.656;21.170;2024-03-06T02:30:30;58.05;;;31.88;;
37305;SDS011;23193;42.656;21.170;2024-03-06T02:33:04;57.60;;;33.50;;
37305;SDS011;23193;42.656;21.170;2024-03-06T02:35:31;63.78;;;33.65;;
37305;SDS011;23193;42.656;21.170;2024-03-06T02:37:59;53.08;;;31.25;;
37305;SDS011;23193;42.656;21.170;2024-03-06T02:40:26;56.58;;;30.15;;
37305;SDS011;23193;42.656;21.170;2024-03-06T02:42:53;62.45;;;30.98;;
37305;SDS011;23193;42.656;21.170;2024-03-06T02:45:20;54.10;;;29.85;;
37305;SDS011;23193;42.656;21.170;2024-03-06T02:47:48;52.63;;;30.17;;
37305;SDS011;23193;42.656;21.170;2024-03-06T02:50:15;50.15;;;29.20;;
37305;SDS011;23193;42.656;21.170;2024-03-06T02:52:43;53.55;;;29.13;;
37305;SDS011;23193;42.656;21.170;2024-03-06T02:55:11;48.17;;;28.58;;
37305;SDS011;23193;42.656;21.170;2024-03-06T02:57:38;59.55;;;27.10;;
37305;SDS011;23193;42.656;21.170;2024-03-06T03:00:05;49.28;;;29.02;;
37305;SDS011;23193;42.656;21.170;2024-03-06T03:02:36;51.95;;;27.13;;
37305;SDS011;23193;42.656;21.170;2024-03-06T03:05:02;53.70;;;27.67;;
37305;SDS011;23193;42.656;21.170;2024-03-06T03:07:30;47.75;;;26.25;;
37305;SDS011;23193;42.656;21.170;2024-03-06T03:09:57;47.08;;;25.05;;
37305;SDS011;23193;42.656;21.170;2024-03-06T03:12:24;44.75;;;26.52;;
37305;SDS011;23193;42.656;21.170;2024-03-06T03:14:51;56.08;;;25.10;;
37305;SDS011;23193;42.656;21.170;2024-03-06T03:17:19;45.45;;;25.98;;
37305;SDS011;23193;42.656;21.170;2024-03-06T03:19:49;49.53;;;27.73;;
37305;SDS011;23193;42.656;21.170;2024-03-06T03:22:16;48.63;;;26.55;;
37305;SDS011;23193;42.656;21.170;2024-03-06T03:24:44;47.88;;;24.08;;
37305;SDS011;23193;42.656;21.170;2024-03-06T03:27:11;43.22;;;25.00;;
37305;SDS011;23193;42.656;21.170;2024-03-06T03:29:39;39.08;;;23.17;;
37305;SDS011;23193;42.656;21.170;2024-03-06T03:32:06;47.22;;;24.55;;
37305;SDS011;23193;42.656;21.170;2024-03-06T03:34:34;49.13;;;24.55;;
37305;SDS011;23193;42.656;21.170;2024-03-06T03:37:01;44.90;;;24.13;;
37305;SDS011;23193;42.656;21.170;2024-03-06T03:39:28;50.42;;;25.73;;
37305;SDS011;23193;42.656;21.170;2024-03-06T03:41:55;45.53;;;23.42;;
37305;SDS011;23193;42.656;21.170;2024-03-06T03:44:23;47.17;;;25.42;;
37305;SDS011;23193;42.656;21.170;2024-03-06T03:46:50;45.72;;;25.17;;
37305;SDS011;23193;42.656;21.170;2024-03-06T03:49:18;54.40;;;24.90;;
37305;SDS011;23193;42.656;21.170;2024-03-06T03:51:45;46.50;;;24.58;;
37305;SDS011;23193;42.656;21.170;2024-03-06T03:54:12;40.67;;;23.85;;
37305;SDS011;23193;42.656;21.170;2024-03-06T03:56:39;51.28;;;24.95;;
37305;SDS011;23193;42.656;21.170;2024-03-06T03:59:07;44.28;;;25.13;;
37305;SDS011;23193;42.656;21.170;2024-03-06T04:01:34;46.55;;;25.10;;
37305;SDS011;23193;42.656;21.170;2024-03-06T04:04:02;47.40;;;25.40;;
37305;SDS011;23193;42.656;21.170;2024-03-06T04:06:29;42.40;;;23.73;;
37305;SDS011;23193;42.656;21.170;2024-03-06T04:08:56;38.50;;;24.08;;
37305;SDS011;23193;42.656;21.170;2024-03-06T04:11:23;34.65;;;21.67;;
37305;SDS011;23193;42.656;21.170;2024-03-06T04:13:51;35.05;;;19.38;;
37305;SDS011;23193;42.656;21.170;2024-03-06T04:16:18;37.03;;;19.70;;
37305;SDS011;23193;42.656;21.170;2024-03-06T04:18:45;35.92;;;19.52;;
37305;SDS011;23193;42.656;21.170;2024-03-06T04:21:13;38.85;;;20.20;;
37305;SDS011;23193;42.656;21.170;2024-03-06T04:23:43;45.17;;;22.92;;
37305;SDS011;23193;42.656;21.170;2024-03-06T04:26:10;37.92;;;22.48;;
37305;SDS011;23193;42.656;21.170;2024-03-06T04:28:37;40.60;;;20.30;;
37305;SDS011;23193;42.656;21.170;2024-03-06T04:31:04;33.47;;;18.75;;
37305;SDS011;23193;42.656;21.170;2024-03-06T04:33:32;33.28;;;17.90;;
37305;SDS011;23193;42.656;21.170;2024-03-06T04:36:03;31.63;;;19.20;;
37305;SDS011;23193;42.656;21.170;2024-03-06T04:38:31;35.67;;;20.77;;
37305;SDS011;23193;42.656;21.170;2024-03-06T04:40:58;42.10;;;22.50;;
37305;SDS011;23193;42.656;21.170;2024-03-06T04:43:25;41.97;;;22.15;;
37305;SDS011;23193;42.656;21.170;2024-03-06T04:45:52;38.97;;;21.77;;
37305;SDS011;23193;42.656;21.170;2024-03-06T04:48:19;42.13;;;23.55;;
37305;SDS011;23193;42.656;21.170;2024-03-06T04:50:46;41.40;;;22.90;;
37305;SDS011;23193;42.656;21.170;2024-03-06T04:53:13;36.42;;;22.77;;
37305;SDS011;23193;42.656;21.170;2024-03-06T04:55:40;43.30;;;24.10;;
37305;SDS011;23193;42.656;21.170;2024-03-06T04:58:09;41.60;;;24.38;;
37305;SDS011;23193;42.656;21.170;2024-03-06T05:00:36;49.58;;;25.15;;
37305;SDS011;23193;42.656;21.170;2024-03-06T05:03:04;45.75;;;23.65;;
37305;SDS011;23193;42.656;21.170;2024-03-06T05:05:49;50.55;;;25.88;;
37305;SDS011;23193;42.656;21.170;2024-03-06T05:08:34;44.10;;;24.33;;
37305;SDS011;23193;42.656;21.170;2024-03-06T05:11:19;62.00;;;32.45;;
37305;SDS011;23193;42.656;21.170;2024-03-06T05:14:04;71.32;;;37.47;;
37305;SDS011;23193;42.656;21.170;2024-03-06T05:16:49;82.85;;;38.80;;
37305;SDS011;23193;42.656;21.170;2024-03-06T05:19:33;80.63;;;42.35;;
37305;SDS011;23193;42.656;21.170;2024-03-06T05:22:17;79.05;;;40.28;;
37305;SDS011;23193;42.656;21.170;2024-03-06T05:25:02;81.43;;;41.40;;
37305;SDS011;23193;42.656;21.170;2024-03-06T05:27:47;83.13;;;43.13;;
37305;SDS011;23193;42.656;21.170;2024-03-06T05:30:31;93.78;;;41.58;;
37305;SDS011;23193;42.656;21.170;2024-03-06T05:33:16;86.93;;;41.65;;
37305;SDS011;23193;42.656;21.170;2024-03-06T05:36:01;83.38;;;43.95;;
37305;SDS011;23193;42.656;21.170;2024-03-06T05:38:45;81.70;;;43.10;;
37305;SDS011;23193;42.656;21.170;2024-03-06T05:41:30;94.60;;;45.78;;
37305;SDS011;23193;42.656;21.170;2024-03-06T05:44:15;83.13;;;45.55;;
37305;SDS011;23193;42.656;21.170;2024-03-06T05:47:00;96.90;;;43.63;;
37305;SDS011;23193;42.656;21.170;2024-03-06T05:49:45;89.15;;;42.72;;
37305;SDS011;23193;42.656;21.170;2024-03-06T05:52:31;91.18;;;43.70;;
37305;SDS011;23193;42.656;21.170;2024-03-06T05:55:15;99.43;;;46.90;;
37305;SDS011;23193;42.656;21.170;2024-03-06T05:57:59;84.70;;;45.80;;
37305;SDS011;23193;42.656;21.170;2024-03-06T06:00:40;97.28;;;46.20;;
37305;SDS011;23193;42.656;21.170;2024-03-06T06:03:08;87.88;;;45.33;;
37305;SDS011;23193;42.656;21.170;2024-03-06T06:05:37;90.68;;;47.40;;
37305;SDS011;23193;42.656;21.170;2024-03-06T06:08:05;91.85;;;45.83;;
37305;SDS011;23193;42.656;21.170;2024-03-06T06:10:32;95.95;;;48.53;;
37305;SDS011;23193;42.656;21.170;2024-03-06T06:13:00;85.68;;;45.50;;
37305;SDS011;23193;42.656;21.170;2024-03-06T06:15:27;81.03;;;41.50;;
37305;SDS011;23193;42.656;21.170;2024-03-06T06:17:55;82.65;;;43.60;;
37305;SDS011;23193;42.656;21.170;2024-03-06T06:20:22;73.43;;;38.72;;
37305;SDS011;23193;42.656;21.170;2024-03-06T06:22:51;76.55;;;39.67;;
37305;SDS011;23193;42.656;21.170;2024-03-06T06:25:18;76.18;;;37.08;;
37305;SDS011;23193;42.656;21.170;2024-03-06T06:27:45;65.45;;;36.30;;
37305;SDS011;23193;42.656;21.170;2024-03-06T06:30:13;66.93;;;33.22;;
37305;SDS011;23193;42.656;21.170;2024-03-06T06:32:40;57.97;;;32.60;;
37305;SDS011;23193;42.656;21.170;2024-03-06T06:35:09;63.35;;;31.20;;
37305;SDS011;23193;42.656;21.170;2024-03-06T06:37:37;59.55;;;30.58;;
37305;SDS011;23193;42.656;21.170;2024-03-06T06:40:05;69.88;;;31.83;;
37305;SDS011;23193;42.656;21.170;2024-03-06T06:42:35;59.27;;;32.17;;
37305;SDS011;23193;42.656;21.170;2024-03-06T06:45:03;59.55;;;30.45;;
37305;SDS011;23193;42.656;21.170;2024-03-06T06:47:31;56.22;;;32.33;;
37305;SDS011;23193;42.656;21.170;2024-03-06T06:49:58;65.82;;;33.00;;
37305;SDS011;23193;42.656;21.170;2024-03-06T06:52:26;55.17;;;32.40;;
37305;SDS011;23193;42.656;21.170;2024-03-06T06:54:54;56.47;;;28.70;;
37305;SDS011;23193;42.656;21.170;2024-03-06T06:57:22;57.95;;;28.33;;
37305;SDS011;23193;42.656;21.170;2024-03-06T06:59:49;64.68;;;33.28;;
37305;SDS011;23193;42.656;21.170;2024-03-06T07:02:17;81.05;;;41.38;;
37305;SDS011;23193;42.656;21.170;2024-03-06T07:04:45;64.45;;;34.55;;
37305;SDS011;23193;42.656;21.170;2024-03-06T07:07:12;65.68;;;35.33;;
37305;SDS011;23193;42.656;21.170;2024-03-06T07:09:40;78.63;;;37.83;;
37305;SDS011;23193;42.656;21.170;2024-03-06T07:12:07;77.75;;;40.70;;
37305;SDS011;23193;42.656;21.170;2024-03-06T07:14:34;81.15;;;41.20;;
37305;SDS011;23193;42.656;21.170;2024-03-06T07:17:02;82.47;;;39.70;;
37305;SDS011;23193;42.656;21.170;2024-03-06T07:19:30;73.72;;;39.67;;
37305;SDS011;23193;42.656;21.170;2024-03-06T07:21:57;80.68;;;41.10;;
37305;SDS011;23193;42.656;21.170;2024-03-06T07:24:24;87.43;;;41.45;;
37305;SDS011;23193;42.656;21.170;2024-03-06T07:26:51;85.53;;;44.25;;
37305;SDS011;23193;42.656;21.170;2024-03-06T07:29:18;81.47;;;43.25;;
37305;SDS011;23193;42.656;21.170;2024-03-06T07:31:45;93.18;;;45.90;;
37305;SDS011;23193;42.656;21.170;2024-03-06T07:34:14;85.65;;;44.22;;
37305;SDS011;23193;42.656;21.170;2024-03-06T07:36:44;207.75;;;98.38;;
37305;SDS011;23193;42.656;21.170;2024-03-06T07:39:14;563.17;;;327.10;;
37305;SDS011;23193;42.656;21.170;2024-03-06T07:41:43;273.45;;;138.93;;
37305;SDS011;23193;42.656;21.170;2024-03-06T07:44:10;236.88;;;105.07;;
37305;SDS011;23193;42.656;21.170;2024-03-06T07:46:38;125.20;;;61.08;;
37305;SDS011;23193;42.656;21.170;2024-03-06T07:49:05;116.93;;;60.38;;
37305;SDS011;23193;42.656;21.170;2024-03-06T07:51:32;107.00;;;55.53;;
37305;SDS011;23193;42.656;21.170;2024-03-06T07:53:59;100.72;;;49.67;;
37305;SDS011;23193;42.656;21.170;2024-03-06T07:56:27;102.45;;;50.08;;
37305;SDS011;23193;42.656;21.170;2024-03-06T07:58:55;96.18;;;46.72;;
37305;SDS011;23193;42.656;21.170;2024-03-06T08:01:22;79.80;;;40.85;;
37305;SDS011;23193;42.656;21.170;2024-03-06T08:03:50;78.00;;;41.58;;
37305;SDS011;23193;42.656;21.170;2024-03-06T08:06:18;93.70;;;45.60;;
37305;SDS011;23193;42.656;21.170;2024-03-06T08:08:45;96.90;;;38.47;;
37305;SDS011;23193;42.656;21.170;2024-03-06T08:11:13;62.88;;;32.58;;
37305;SDS011;23193;42.656;21.170;2024-03-06T08:13:40;65.10;;;34.20;;
37305;SDS011;23193;42.656;21.170;2024-03-06T08:16:08;68.47;;;32.42;;
37305;SDS011;23193;42.656;21.170;2024-03-06T08:18:36;79.32;;;34.58;;
37305;SDS011;23193;42.656;21.170;2024-03-06T08:21:03;89.82;;;40.15;;
37305;SDS011;23193;42.656;21.170;2024-03-06T08:23:32;86.78;;;40.50;;
37305;SDS011;23193;42.656;21.170;2024-03-06T08:26:00;79.63;;;35.20;;
37305;SDS011;23193;42.656;21.170;2024-03-06T08:28:27;84.13;;;39.40;;
37305;SDS011;23193;42.656;21.170;2024-03-06T08:30:54;70.80;;;36.55;;
37305;SDS011;23193;42.656;21.170;2024-03-06T08:33:22;75.97;;;34.53;;
37305;SDS011;23193;42.656;21.170;2024-03-06T08:35:51;76.85;;;34.55;;
37305;SDS011;23193;42.656;21.170;2024-03-06T08:38:18;72.72;;;34.35;;
37305;SDS011;23193;42.656;21.170;2024-03-06T08:40:45;75.78;;;34.58;;
37305;SDS011;23193;42.656;21.170;2024-03-06T08:43:13;67.63;;;33.47;;
37305;SDS011;23193;42.656;21.170;2024-03-06T08:45:42;75.68;;;35.08;;
37305;SDS011;23193;42.656;21.170;2024-03-06T08:48:09;83.07;;;35.85;;
37305;SDS011;23193;42.656;21.170;2024-03-06T08:50:37;84.35;;;36.28;;
37305;SDS011;23193;42.656;21.170;2024-03-06T08:53:05;76.95;;;37.08;;
37305;SDS011;23193;42.656;21.170;2024-03-06T08:55:33;69.78;;;35.58;;
37305;SDS011;23193;42.656;21.170;2024-03-06T08:58:00;77.88;;;32.60;;
37305;SDS011;23193;42.656;21.170;2024-03-06T09:00:28;65.72;;;31.23;;
37305;SDS011;23193;42.656;21.170;2024-03-06T09:02:55;68.38;;;33.83;;
37305;SDS011;23193;42.656;21.170;2024-03-06T09:05:22;76.35;;;33.28;;
37305;SDS011;23193;42.656;21.170;2024-03-06T09:07:50;60.10;;;32.88;;
37305;SDS011;23193;42.656;21.170;2024-03-06T09:10:17;55.35;;;27.13;;
37305;SDS011;23193;42.656;21.170;2024-03-06T09:12:46;71.57;;;34.38;;
37305;SDS011;23193;42.656;21.170;2024-03-06T09:15:14;45.88;;;25.10;;
37305;SDS011;23193;42.656;21.170;2024-03-06T09:17:42;49.05;;;26.98;;
37305;SDS011;23193;42.656;21.170;2024-03-06T09:20:09;52.75;;;26.90;;
37305;SDS011;23193;42.656;21.170;2024-03-06T09:22:39;67.55;;;34.67;;
37305;SDS011;23193;42.656;21.170;2024-03-06T09:25:06;61.10;;;30.98;;
37305;SDS011;23193;42.656;21.170;2024-03-06T09:27:34;52.20;;;27.75;;
37305;SDS011;23193;42.656;21.170;2024-03-06T09:30:01;50.90;;;28.20;;
37305;SDS011;23193;42.656;21.170;2024-03-06T09:32:30;54.38;;;27.52;;
37305;SDS011;23193;42.656;21.170;2024-03-06T09:34:59;57.05;;;26.67;;
37305;SDS011;23193;42.656;21.170;2024-03-06T09:37:26;55.92;;;29.25;;
37305;SDS011;23193;42.656;21.170;2024-03-06T09:39:54;77.13;;;29.02;;
37305;SDS011;23193;42.656;21.170;2024-03-06T09:42:24;83.88;;;32.63;;
37305;SDS011;23193;42.656;21.170;2024-03-06T09:44:51;70.13;;;30.95;;
37305;SDS011;23193;42.656;21.170;2024-03-06T09:47:21;72.47;;;30.15;;
37305;SDS011;23193;42.656;21.170;2024-03-06T09:49:51;72.72;;;29.90;;
37305;SDS011;23193;42.656;21.170;2024-03-06T09:52:20;81.53;;;32.97;;
37305;SDS011;23193;42.656;21.170;2024-03-06T09:54:48;63.53;;;30.95;;
37305;SDS011;23193;42.656;21.170;2024-03-06T09:57:15;79.00;;;33.72;;
37305;SDS011;23193;42.656;21.170;2024-03-06T09:59:43;74.18;;;28.63;;
37305;SDS011;23193;42.656;21.170;2024-03-06T10:02:17;62.90;;;26.42;;
37305;SDS011;23193;42.656;21.170;2024-03-06T10:04:45;56.28;;;26.17;;
37305;SDS011;23193;42.656;21.170;2024-03-06T10:07:13;63.90;;;29.08;;
37305;SDS011;23193;42.656;21.170;2024-03-06T10:09:40;57.63;;;29.33;;
37305;SDS011;23193;42.656;21.170;2024-03-06T10:12:07;68.18;;;29.85;;
37305;SDS011;23193;42.656;21.170;2024-03-06T10:14:35;53.10;;;28.08;;
37305;SDS011;23193;42.656;21.170;2024-03-06T10:17:03;48.88;;;26.77;;
37305;SDS011;23193;42.656;21.170;2024-03-06T10:19:30;57.70;;;28.92;;
37305;SDS011;23193;42.656;21.170;2024-03-06T10:21:58;59.30;;;29.73;;
37305;SDS011;23193;42.656;21.170;2024-03-06T10:24:28;66.88;;;30.85;;
37305;SDS011;23193;42.656;21.170;2024-03-06T10:26:56;66.22;;;29.20;;
37305;SDS011;23193;42.656;21.170;2024-03-06T10:29:26;76.18;;;28.20;;
37305;SDS011;23193;42.656;21.170;2024-03-06T10:31:55;63.08;;;29.52;;
37305;SDS011;23193;42.656;21.170;2024-03-06T10:34:25;57.00;;;27.27;;
37305;SDS011;23193;42.656;21.170;2024-03-06T10:36:56;59.78;;;27.15;;
37305;SDS011;23193;42.656;21.170;2024-03-06T10:39:25;52.58;;;25.85;;
37305;SDS011;23193;42.656;21.170;2024-03-06T10:41:53;56.05;;;25.63;;
37305;SDS011;23193;42.656;21.170;2024-03-06T10:44:24;53.97;;;25.70;;
37305;SDS011;23193;42.656;21.170;2024-03-06T10:47:02;46.88;;;24.27;;
37305;SDS011;23193;42.656;21.170;2024-03-06T10:49:30;54.80;;;22.48;;
37305;SDS011;23193;42.656;21.170;2024-03-06T10:51:58;43.72;;;20.52;;
37305;SDS011;23193;42.656;21.170;2024-03-06T10:54:32;39.00;;;22.95;;
37305;SDS011;23193;42.656;21.170;2024-03-06T10:57:08;43.45;;;22.40;;
37305;SDS011;23193;42.656;21.170;2024-03-06T10:59:36;38.20;;;19.33;;
37305;SDS011;23193;42.656;21.170;2024-03-06T11:02:05;43.47;;;17.85;;
37305;SDS011;23193;42.656;21.170;2024-03-06T11:04:35;40.20;;;18.55;;
37305;SDS011;23193;42.656;21.170;2024-03-06T11:07:03;38.28;;;17.13;;
37305;SDS011;23193;42.656;21.170;2024-03-06T11:09:33;40.90;;;20.17;;
37305;SDS011;23193;42.656;21.170;2024-03-06T11:12:08;47.05;;;22.02;;
37305;SDS011;23193;42.656;21.170;2024-03-06T11:14:39;51.20;;;23.60;;
37305;SDS011;23193;42.656;21.170;2024-03-06T11:17:10;40.40;;;21.95;;
37305;SDS011;23193;42.656;21.170;2024-03-06T11:25:36;44.40;;;23.23;;
37305;SDS011;23193;42.656;21.170;2024-03-06T11:28:03;42.83;;;19.83;;
37305;SDS011;23193;42.656;21.170;2024-03-06T11:30:31;41.90;;;19.13;;
37305;SDS011;23193;42.656;21.170;2024-03-06T11:32:59;35.75;;;19.00;;
37305;SDS011;23193;42.656;21.170;2024-03-06T11:37:58;41.80;;;19.77;;
37305;SDS011;23193;42.656;21.170;2024-03-06T11:40:25;45.30;;;18.58;;
37305;SDS011;23193;42.656;21.170;2024-03-06T11:42:53;42.88;;;17.17;;
37305;SDS011;23193;42.656;21.170;2024-03-06T11:45:20;43.88;;;17.92;;
37305;SDS011;23193;42.656;21.170;2024-03-06T11:47:55;29.77;;;16.17;;
37305;SDS011;23193;42.656;21.170;2024-03-06T11:50:23;39.90;;;15.98;;
37305;SDS011;23193;42.656;21.170;2024-03-06T11:52:51;25.70;;;16.05;;
37305;SDS011;23193;42.656;21.170;2024-03-06T11:55:18;41.28;;;17.38;;
37305;SDS011;23193;42.656;21.170;2024-03-06T11:57:46;31.38;;;15.38;;
37305;SDS011;23193;42.656;21.170;2024-03-06T12:00:14;32.47;;;15.43;;
37305;SDS011;23193;42.656;21.170;2024-03-06T12:02:41;29.40;;;14.77;;
37305;SDS011;23193;42.656;21.170;2024-03-06T12:05:09;32.67;;;15.95;;
37305;SDS011;23193;42.656;21.170;2024-03-06T12:07:55;47.90;;;18.30;;
37305;SDS011;23193;42.656;21.170;2024-03-06T12:10:23;34.63;;;16.77;;
37305;SDS011;23193;42.656;21.170;2024-03-06T12:12:50;35.95;;;16.88;;
37305;SDS011;23193;42.656;21.170;2024-03-06T12:15:17;47.20;;;15.88;;
37305;SDS011;23193;42.656;21.170;2024-03-06T12:17:47;34.88;;;15.95;;
37305;SDS011;23193;42.656;21.170;2024-03-06T12:20:15;34.15;;;14.82;;
37305;SDS011;23193;42.656;21.170;2024-03-06T12:22:49;39.15;;;14.05;;
37305;SDS011;23193;42.656;21.170;2024-03-06T12:27:51;42.15;;;16.95;;
37305;SDS011;23193;42.656;21.170;2024-03-06T12:30:22;55.97;;;27.95;;
37305;SDS011;23193;42.656;21.170;2024-03-06T12:35:25;36.22;;;15.82;;
37305;SDS011;23193;42.656;21.170;2024-03-06T12:37:55;38.50;;;17.08;;
37305;SDS011;23193;42.656;21.170;2024-03-06T12:40:23;35.00;;;13.77;;
37305;SDS011;23193;42.656;21.170;2024-03-06T12:42:50;32.28;;;14.10;;
37305;SDS011;23193;42.656;21.170;2024-03-06T12:45:19;35.85;;;13.50;;
37305;SDS011;23193;42.656;21.170;2024-03-06T12:47:46;33.35;;;11.65;;
37305;SDS011;23193;42.656;21.170;2024-03-06T12:52:44;39.08;;;13.65;;
37305;SDS011;23193;42.656;21.170;2024-03-06T12:55:13;31.33;;;11.43;;
37305;SDS011;23193;42.656;21.170;2024-03-06T12:57:41;32.25;;;12.85;;
37305;SDS011;23193;42.656;21.170;2024-03-06T13:00:08;35.38;;;12.30;;
37305;SDS011;23193;42.656;21.170;2024-03-06T13:02:44;41.78;;;15.95;;
37305;SDS011;23193;42.656;21.170;2024-03-06T13:05:11;32.45;;;12.85;;
37305;SDS011;23193;42.656;21.170;2024-03-06T13:07:40;44.38;;;13.45;;
37305;SDS011;23193;42.656;21.170;2024-03-06T13:10:09;44.63;;;14.48;;
37305;SDS011;23193;42.656;21.170;2024-03-06T13:12:37;39.85;;;15.13;;
37305;SDS011;23193;42.656;21.170;2024-03-06T13:15:04;45.50;;;19.48;;
37305;SDS011;23193;42.656;21.170;2024-03-06T13:17:34;46.10;;;19.65;;
37305;SDS011;23193;42.656;21.170;2024-03-06T13:20:01;39.80;;;16.95;;
37305;SDS011;23193;42.656;21.170;2024-03-06T13:22:29;40.25;;;15.23;;
37305;SDS011;23193;42.656;21.170;2024-03-06T13:24:56;31.13;;;12.88;;
37305;SDS011;23193;42.656;21.170;2024-03-06T13:27:24;30.40;;;12.07;;
37305;SDS011;23193;42.656;21.170;2024-03-06T13:29:51;37.80;;;12.80;;
37305;SDS011;23193;42.656;21.170;2024-03-06T13:32:18;35.97;;;15.30;;
37305;SDS011;23193;42.656;21.170;2024-03-06T13:34:45;38.47;;;14.38;;
37305;SDS011;23193;42.656;21.170;2024-03-06T13:37:13;32.97;;;15.57;;
37305;SDS011;23193;42.656;21.170;2024-03-06T13:39:40;36.83;;;18.13;;
37305;SDS011;23193;42.656;21.170;2024-03-06T13:42:08;42.10;;;19.20;;
37305;SDS011;23193;42.656;21.170;2024-03-06T13:44:35;35.80;;;16.13;;
37305;SDS011;23193;42.656;21.170;2024-03-06T13:47:03;45.25;;;18.65;;
37305;SDS011;23193;42.656;21.170;2024-03-06T13:49:34;46.85;;;18.40;;
37305;SDS011;23193;42.656;21.170;2024-03-06T13:54:30;35.25;;;15.50;;
37305;SDS011;23193;42.656;21.170;2024-03-06T13:56:58;39.47;;;13.82;;
37305;SDS011;23193;42.656;21.170;2024-03-06T13:59:30;38.85;;;13.25;;
37305;SDS011;23193;42.656;21.170;2024-03-06T14:01:57;29.45;;;14.18;;
37305;SDS011;23193;42.656;21.170;2024-03-06T14:04:25;40.15;;;16.25;;
37305;SDS011;23193;42.656;21.170;2024-03-06T14:06:53;39.63;;;17.23;;
37305;SDS011;23193;42.656;21.170;2024-03-06T14:09:20;28.42;;;13.88;;
37305;SDS011;23193;42.656;21.170;2024-03-06T14:14:18;27.67;;;13.90;;
37305;SDS011;23193;42.656;21.170;2024-03-06T14:16:46;42.90;;;14.63;;
37305;SDS011;23193;42.656;21.170;2024-03-06T14:19:13;37.60;;;14.90;;
37305;SDS011;23193;42.656;21.170;2024-03-06T14:21:41;35.72;;;15.15;;
37305;SDS011;23193;42.656;21.170;2024-03-06T14:24:08;38.75;;;16.15;;
37305;SDS011;23193;42.656;21.170;2024-03-06T14:26:35;38.28;;;16.98;;
37305;SDS011;23193;42.656;21.170;2024-03-06T14:29:05;30.88;;;16.85;;
37305;SDS011;23193;42.656;21.170;2024-03-06T14:31:34;42.33;;;19.30;;
37305;SDS011;23193;42.656;21.170;2024-03-06T14:34:01;39.65;;;20.40;;
37305;SDS011;23193;42.656;21.170;2024-03-06T14:36:32;27.63;;;11.25;;
37305;SDS011;23193;42.656;21.170;2024-03-06T14:39:01;53.60;;;20.98;;